Auk-Alfa, Netherlands

2:48 PM CEST on July 31, 2014 (GMT +0200)
Ekofisk (ENEK) Elev 10 ft | 56.55 °N, 3.25 °E | Change Station

Current weather conditions updated 28 minutes ago

Mostly Cloudy
Mostly Cloudy
63 °F
Feels Like 63 °F
N
16
Wind Variable Wind from SW

Today is forecast to be Cooler than yesterday.

Today
High -- | Low -- °F
--% Chance of Precip.
Yesterday
High -- | Low -- °F
Precip. -- in
5:51 AM 10:03 PM
Waxing Crescent, 18% visible
Pressure 29.80 in
Visibility 6.2 miles
Clouds Few 2000 ft
Mostly Cloudy 6500 ft
Dew Point 54 °F
Humidity 72%
Rainfall 0.00 in
Snow Depth Not available.
UV 5 out of 12
Pollen Not available.
Air Quality Not available.
Flu Activity Not available.
METAR ENEK 311220Z 22014KT 9999 FEW020 BKN065 17/12 Q1009 W18/S4

More Conditions Fewer Conditions

Pressure 29.80 in
Visibility 6.2 miles
Clouds Few 2000 ft
Mostly Cloudy 6500 ft
Dew Point 54 °F
Humidity 72%
Rainfall 0.00 in
Snow Depth Not available.
UV 5 out of 12
Pollen Not available.
Air Quality Not available.
Flu Activity Not available.
METAR ENEK 311220Z 22014KT 9999 FEW020 BKN065 17/12 Q1009 W18/S4

More Conditions Fewer Conditions

10-Day Weather Forecast

Almanac

Astronomy

Jul. 31, 2014 Rise Set
Actual Time 5:51 AM CEST 10:03 PM CEST
Civil Twilight 5:01 AM CEST 10:52 PM CEST
Nautical Twilight 3:44 AM CEST 12:08 AM CEST
Astronomical Twilight 2:30 AM CEST 1:25 AM CEST
Moon 11:03 AM CEST 11:04 PM CEST
Length of Visible Light 17h 51m
Length of Day
16h 12m
Tomorrow will be 3m 55s shorter.
Waxing Crescent, 18% of the Moon is Illuminated
Today
Waxing Crescent
Aug 3
First Quarter
Aug 10
Full
Aug 17
Last Quarter
Aug 25
New

Yesterday's Extremes

Country Highs Country Lows

Community

WunderPhotos

Upload Photos

1,739,310 photos uploaded!

WunderBlogs® & News

By Dr. Jeff Masters
Director of Meteorology, Weather Underground
By Kari Strenfel
Meteorologist, Weather Underground
By Christopher C. Burt
Weather Historian, Weather Underground
July 31, 2014
July 31, 2014
July 31, 2014

Nearby

Snow Depth

Not available.

Earthquake Activity

City Distance Mag. Time & Date
No recent earthquake activity has been reported nearby.
Minimum magnitude displayed is 2.5.

Coastal Water Temperatures

Place Temperature
No Stations Reporting

Nearby Weather Stations

There are no personal weather stations in this area.